sensor_id;sensor_type;location;lat;lon;timestamp;P1;durP1;ratioP1;P2;durP2;ratioP2
47519;SDS011;33252;48.122;11.538;2022-10-13T00:01:19;31.60;;;19.33;;
47519;SDS011;33252;48.122;11.538;2022-10-13T00:03:46;30.80;;;19.45;;
47519;SDS011;33252;48.122;11.538;2022-10-13T00:06:13;30.30;;;17.52;;
47519;SDS011;33252;48.122;11.538;2022-10-13T00:08:42;30.02;;;18.77;;
47519;SDS011;33252;48.122;11.538;2022-10-13T00:11:13;28.63;;;16.75;;
47519;SDS011;33252;48.122;11.538;2022-10-13T00:13:41;26.63;;;16.95;;
47519;SDS011;33252;48.122;11.538;2022-10-13T00:16:08;29.13;;;16.88;;
47519;SDS011;33252;48.122;11.538;2022-10-13T00:18:34;26.67;;;17.13;;
47519;SDS011;33252;48.122;11.538;2022-10-13T00:21:00;27.85;;;16.92;;
47519;SDS011;33252;48.122;11.538;2022-10-13T00:23:32;27.30;;;16.40;;
47519;SDS011;33252;48.122;11.538;2022-10-13T00:26:01;26.90;;;16.45;;
47519;SDS011;33252;48.122;11.538;2022-10-13T00:28:31;29.73;;;15.25;;
47519;SDS011;33252;48.122;11.538;2022-10-13T00:30:57;25.73;;;15.98;;
47519;SDS011;33252;48.122;11.538;2022-10-13T00:33:23;27.50;;;16.58;;
47519;SDS011;33252;48.122;11.538;2022-10-13T00:35:48;25.33;;;15.55;;
47519;SDS011;33252;48.122;11.538;2022-10-13T00:38:15;23.63;;;14.57;;
47519;SDS011;33252;48.122;11.538;2022-10-13T00:40:43;26.25;;;15.10;;
47519;SDS011;33252;48.122;11.538;2022-10-13T00:43:14;23.75;;;14.98;;
47519;SDS011;33252;48.122;11.538;2022-10-13T00:45:41;27.48;;;14.77;;
47519;SDS011;33252;48.122;11.538;2022-10-13T00:48:07;26.20;;;15.02;;
47519;SDS011;33252;48.122;11.538;2022-10-13T00:50:37;26.30;;;14.77;;
47519;SDS011;33252;48.122;11.538;2022-10-13T00:53:05;21.88;;;14.13;;
47519;SDS011;33252;48.122;11.538;2022-10-13T00:55:33;26.35;;;14.32;;
47519;SDS011;33252;48.122;11.538;2022-10-13T00:58:00;21.58;;;13.73;;
47519;SDS011;33252;48.122;11.538;2022-10-13T01:00:29;20.67;;;12.57;;
47519;SDS011;33252;48.122;11.538;2022-10-13T01:02:56;20.48;;;15.10;;
47519;SDS011;33252;48.122;11.538;2022-10-13T01:05:22;22.67;;;12.80;;
47519;SDS011;33252;48.122;11.538;2022-10-13T01:07:49;20.27;;;13.07;;
47519;SDS011;33252;48.122;11.538;2022-10-13T01:10:21;23.23;;;12.93;;
47519;SDS011;33252;48.122;11.538;2022-10-13T01:15:54;24.55;;;13.27;;
47519;SDS011;33252;48.122;11.538;2022-10-13T01:21:12;17.10;;;11.70;;
47519;SDS011;33252;48.122;11.538;2022-10-13T01:32:29;19.65;;;11.82;;
47519;SDS011;33252;48.122;11.538;2022-10-13T01:35:09;22.40;;;13.80;;
47519;SDS011;33252;48.122;11.538;2022-10-13T01:40:26;20.25;;;12.13;;
47519;SDS011;33252;48.122;11.538;2022-10-13T01:45:31;21.83;;;14.37;;
47519;SDS011;33252;48.122;11.538;2022-10-13T01:48:05;20.20;;;13.38;;
47519;SDS011;33252;48.122;11.538;2022-10-13T01:50:33;22.67;;;14.32;;
47519;SDS011;33252;48.122;11.538;2022-10-13T01:53:02;23.00;;;14.50;;
47519;SDS011;33252;48.122;11.538;2022-10-13T01:55:29;23.77;;;14.23;;
47519;SDS011;33252;48.122;11.538;2022-10-13T01:57:56;24.63;;;13.77;;
47519;SDS011;33252;48.122;11.538;2022-10-13T02:00:22;25.98;;;13.52;;
47519;SDS011;33252;48.122;11.538;2022-10-13T02:11:19;23.05;;;14.18;;
47519;SDS011;33252;48.122;11.538;2022-10-13T02:16:17;22.15;;;14.40;;
47519;SDS011;33252;48.122;11.538;2022-10-13T02:18:47;26.15;;;16.00;;
47519;SDS011;33252;48.122;11.538;2022-10-13T02:21:14;23.08;;;13.57;;
47519;SDS011;33252;48.122;11.538;2022-10-13T02:23:41;20.67;;;13.35;;
47519;SDS011;33252;48.122;11.538;2022-10-13T02:26:07;26.38;;;15.05;;
47519;SDS011;33252;48.122;11.538;2022-10-13T02:28:35;25.17;;;15.13;;
47519;SDS011;33252;48.122;11.538;2022-10-13T02:31:02;25.98;;;13.80;;
47519;SDS011;33252;48.122;11.538;2022-10-13T02:33:30;22.65;;;14.13;;
47519;SDS011;33252;48.122;11.538;2022-10-13T02:35:56;24.38;;;13.73;;
47519;SDS011;33252;48.122;11.538;2022-10-13T02:38:22;17.85;;;11.82;;
47519;SDS011;33252;48.122;11.538;2022-10-13T02:40:48;24.50;;;12.38;;
47519;SDS011;33252;48.122;11.538;2022-10-13T02:43:13;20.60;;;13.27;;
47519;SDS011;33252;48.122;11.538;2022-10-13T02:45:39;20.35;;;12.20;;
47519;SDS011;33252;48.122;11.538;2022-10-13T02:48:05;20.30;;;11.85;;
47519;SDS011;33252;48.122;11.538;2022-10-13T02:50:30;20.45;;;12.60;;
47519;SDS011;33252;48.122;11.538;2022-10-13T02:52:56;22.38;;;12.82;;
47519;SDS011;33252;48.122;11.538;2022-10-13T02:55:22;21.60;;;13.23;;
47519;SDS011;33252;48.122;11.538;2022-10-13T02:57:47;21.40;;;13.15;;
47519;SDS011;33252;48.122;11.538;2022-10-13T03:00:13;21.67;;;12.35;;
47519;SDS011;33252;48.122;11.538;2022-10-13T03:02:39;22.95;;;13.18;;
47519;SDS011;33252;48.122;11.538;2022-10-13T03:05:05;25.00;;;12.25;;
47519;SDS011;33252;48.122;11.538;2022-10-13T03:07:31;20.10;;;11.95;;
47519;SDS011;33252;48.122;11.538;2022-10-13T03:09:57;26.42;;;11.98;;
47519;SDS011;33252;48.122;11.538;2022-10-13T03:12:23;17.63;;;10.35;;
47519;SDS011;33252;48.122;11.538;2022-10-13T03:14:48;15.10;;;9.88;;
47519;SDS011;33252;48.122;11.538;2022-10-13T03:17:14;14.75;;;9.18;;
47519;SDS011;33252;48.122;11.538;2022-10-13T03:19:40;18.67;;;9.65;;
47519;SDS011;33252;48.122;11.538;2022-10-13T03:22:05;15.00;;;9.40;;
47519;SDS011;33252;48.122;11.538;2022-10-13T03:24:31;13.52;;;8.75;;
47519;SDS011;33252;48.122;11.538;2022-10-13T03:26:56;16.88;;;10.20;;
47519;SDS011;33252;48.122;11.538;2022-10-13T03:29:22;14.32;;;9.25;;
47519;SDS011;33252;48.122;11.538;2022-10-13T03:31:48;14.93;;;9.48;;
47519;SDS011;33252;48.122;11.538;2022-10-13T03:34:14;15.95;;;9.27;;
47519;SDS011;33252;48.122;11.538;2022-10-13T03:36:40;15.25;;;9.57;;
47519;SDS011;33252;48.122;11.538;2022-10-13T03:39:06;13.85;;;8.73;;
47519;SDS011;33252;48.122;11.538;2022-10-13T03:41:32;14.82;;;9.40;;
47519;SDS011;33252;48.122;11.538;2022-10-13T03:43:58;15.07;;;8.93;;
47519;SDS011;33252;48.122;11.538;2022-10-13T03:46:24;12.57;;;8.93;;
47519;SDS011;33252;48.122;11.538;2022-10-13T03:48:52;14.20;;;9.63;;
47519;SDS011;33252;48.122;11.538;2022-10-13T03:51:19;17.98;;;9.55;;
47519;SDS011;33252;48.122;11.538;2022-10-13T03:53:46;17.83;;;9.55;;
47519;SDS011;33252;48.122;11.538;2022-10-13T03:56:13;15.88;;;8.85;;
47519;SDS011;33252;48.122;11.538;2022-10-13T03:58:41;15.93;;;9.18;;
47519;SDS011;33252;48.122;11.538;2022-10-13T04:01:07;14.00;;;9.15;;
47519;SDS011;33252;48.122;11.538;2022-10-13T04:03:34;18.80;;;10.13;;
47519;SDS011;33252;48.122;11.538;2022-10-13T04:06:00;14.68;;;9.90;;
47519;SDS011;33252;48.122;11.538;2022-10-13T04:08:31;19.13;;;10.27;;
47519;SDS011;33252;48.122;11.538;2022-10-13T04:11:01;14.45;;;9.52;;
47519;SDS011;33252;48.122;11.538;2022-10-13T04:13:29;17.83;;;9.80;;
47519;SDS011;33252;48.122;11.538;2022-10-13T04:15:54;18.77;;;10.95;;
47519;SDS011;33252;48.122;11.538;2022-10-13T04:18:20;16.88;;;10.70;;
47519;SDS011;33252;48.122;11.538;2022-10-13T04:20:46;19.27;;;11.52;;
47519;SDS011;33252;48.122;11.538;2022-10-13T04:23:12;15.60;;;11.15;;
47519;SDS011;33252;48.122;11.538;2022-10-13T04:25:38;16.48;;;10.40;;
47519;SDS011;33252;48.122;11.538;2022-10-13T04:28:04;18.02;;;10.85;;
47519;SDS011;33252;48.122;11.538;2022-10-13T04:30:32;20.20;;;11.38;;
47519;SDS011;33252;48.122;11.538;2022-10-13T04:32:58;20.05;;;10.82;;
47519;SDS011;33252;48.122;11.538;2022-10-13T04:35:23;18.75;;;10.65;;
47519;SDS011;33252;48.122;11.538;2022-10-13T04:37:49;23.40;;;12.32;;
47519;SDS011;33252;48.122;11.538;2022-10-13T04:40:15;24.02;;;11.25;;
47519;SDS011;33252;48.122;11.538;2022-10-13T04:42:40;21.08;;;12.75;;
47519;SDS011;33252;48.122;11.538;2022-10-13T04:45:06;19.67;;;11.93;;
47519;SDS011;33252;48.122;11.538;2022-10-13T04:47:35;18.40;;;11.88;;
47519;SDS011;33252;48.122;11.538;2022-10-13T04:50:02;21.02;;;11.63;;
47519;SDS011;33252;48.122;11.538;2022-10-13T04:52:28;20.35;;;12.85;;
47519;SDS011;33252;48.122;11.538;2022-10-13T04:54:53;21.98;;;12.30;;
47519;SDS011;33252;48.122;11.538;2022-10-13T04:57:19;18.88;;;11.02;;
47519;SDS011;33252;48.122;11.538;2022-10-13T04:59:44;17.58;;;10.82;;
47519;SDS011;33252;48.122;11.538;2022-10-13T05:02:10;17.90;;;11.50;;
47519;SDS011;33252;48.122;11.538;2022-10-13T05:04:36;18.52;;;12.52;;
47519;SDS011;33252;48.122;11.538;2022-10-13T05:07:02;21.70;;;12.80;;
47519;SDS011;33252;48.122;11.538;2022-10-13T05:09:27;20.35;;;13.52;;
47519;SDS011;33252;48.122;11.538;2022-10-13T05:11:53;16.48;;;10.85;;
47519;SDS011;33252;48.122;11.538;2022-10-13T05:14:19;19.45;;;11.77;;
47519;SDS011;33252;48.122;11.538;2022-10-13T05:16:46;16.52;;;11.38;;
47519;SDS011;33252;48.122;11.538;2022-10-13T05:19:12;20.08;;;12.75;;
47519;SDS011;33252;48.122;11.538;2022-10-13T05:21:38;19.33;;;11.38;;
47519;SDS011;33252;48.122;11.538;2022-10-13T05:24:03;21.58;;;13.23;;
47519;SDS011;33252;48.122;11.538;2022-10-13T05:26:30;20.08;;;12.65;;
47519;SDS011;33252;48.122;11.538;2022-10-13T05:28:59;16.65;;;12.23;;
47519;SDS011;33252;48.122;11.538;2022-10-13T05:31:26;23.17;;;12.57;;
47519;SDS011;33252;48.122;11.538;2022-10-13T05:33:53;19.33;;;13.77;;
47519;SDS011;33252;48.122;11.538;2022-10-13T05:36:21;20.13;;;12.05;;
47519;SDS011;33252;48.122;11.538;2022-10-13T05:38:52;20.63;;;12.90;;
47519;SDS011;33252;48.122;11.538;2022-10-13T05:41:20;21.50;;;12.15;;
47519;SDS011;33252;48.122;11.538;2022-10-13T05:43:47;20.90;;;12.25;;
47519;SDS011;33252;48.122;11.538;2022-10-13T05:46:13;23.13;;;13.75;;
47519;SDS011;33252;48.122;11.538;2022-10-13T05:48:39;17.88;;;11.88;;
47519;SDS011;33252;48.122;11.538;2022-10-13T05:51:39;19.98;;;11.68;;
47519;SDS011;33252;48.122;11.538;2022-10-13T05:56:36;19.75;;;11.48;;
47519;SDS011;33252;48.122;11.538;2022-10-13T05:59:06;18.25;;;12.10;;
47519;SDS011;33252;48.122;11.538;2022-10-13T06:01:36;19.63;;;11.52;;
47519;SDS011;33252;48.122;11.538;2022-10-13T06:04:05;19.55;;;12.35;;
47519;SDS011;33252;48.122;11.538;2022-10-13T06:06:34;18.88;;;11.45;;
47519;SDS011;33252;48.122;11.538;2022-10-13T06:09:00;21.35;;;12.82;;
47519;SDS011;33252;48.122;11.538;2022-10-13T06:11:26;23.17;;;12.65;;
47519;SDS011;33252;48.122;11.538;2022-10-13T06:13:52;18.92;;;11.60;;
47519;SDS011;33252;48.122;11.538;2022-10-13T06:16:17;21.00;;;11.55;;
47519;SDS011;33252;48.122;11.538;2022-10-13T06:18:43;17.88;;;11.35;;
47519;SDS011;33252;48.122;11.538;2022-10-13T06:21:08;14.85;;;10.65;;
47519;SDS011;33252;48.122;11.538;2022-10-13T06:23:34;17.13;;;12.35;;
47519;SDS011;33252;48.122;11.538;2022-10-13T06:26:00;18.55;;;11.10;;
47519;SDS011;33252;48.122;11.538;2022-10-13T06:28:26;17.73;;;11.05;;
47519;SDS011;33252;48.122;11.538;2022-10-13T06:30:51;15.25;;;10.65;;
47519;SDS011;33252;48.122;11.538;2022-10-13T06:33:20;21.25;;;11.13;;
47519;SDS011;33252;48.122;11.538;2022-10-13T06:35:46;18.15;;;12.23;;
47519;SDS011;33252;48.122;11.538;2022-10-13T06:38:11;19.13;;;12.05;;
47519;SDS011;33252;48.122;11.538;2022-10-13T06:40:37;21.88;;;12.38;;
47519;SDS011;33252;48.122;11.538;2022-10-13T06:43:03;18.00;;;12.63;;
47519;SDS011;33252;48.122;11.538;2022-10-13T06:45:29;24.98;;;14.48;;
47519;SDS011;33252;48.122;11.538;2022-10-13T06:47:54;22.02;;;14.15;;
47519;SDS011;33252;48.122;11.538;2022-10-13T06:50:21;25.52;;;14.80;;
47519;SDS011;33252;48.122;11.538;2022-10-13T06:52:47;21.90;;;14.63;;
47519;SDS011;33252;48.122;11.538;2022-10-13T06:55:12;24.05;;;16.45;;
47519;SDS011;33252;48.122;11.538;2022-10-13T06:57:38;28.77;;;16.27;;
47519;SDS011;33252;48.122;11.538;2022-10-13T07:00:04;26.52;;;17.35;;
47519;SDS011;33252;48.122;11.538;2022-10-13T07:02:31;25.80;;;16.52;;
47519;SDS011;33252;48.122;11.538;2022-10-13T07:04:56;25.92;;;16.95;;
47519;SDS011;33252;48.122;11.538;2022-10-13T07:07:22;29.83;;;17.02;;
47519;SDS011;33252;48.122;11.538;2022-10-13T07:09:48;26.35;;;16.52;;
47519;SDS011;33252;48.122;11.538;2022-10-13T07:12:14;28.48;;;17.40;;
47519;SDS011;33252;48.122;11.538;2022-10-13T07:14:39;30.90;;;19.63;;
47519;SDS011;33252;48.122;11.538;2022-10-13T07:17:05;31.23;;;17.10;;
47519;SDS011;33252;48.122;11.538;2022-10-13T07:19:31;24.98;;;17.30;;
47519;SDS011;33252;48.122;11.538;2022-10-13T07:21:57;27.52;;;18.25;;
47519;SDS011;33252;48.122;11.538;2022-10-13T07:24:23;28.38;;;16.73;;
47519;SDS011;33252;48.122;11.538;2022-10-13T07:26:49;25.15;;;15.82;;
47519;SDS011;33252;48.122;11.538;2022-10-13T07:29:15;30.30;;;19.15;;
47519;SDS011;33252;48.122;11.538;2022-10-13T07:31:44;30.17;;;16.88;;
47519;SDS011;33252;48.122;11.538;2022-10-13T07:34:10;27.98;;;16.67;;
47519;SDS011;33252;48.122;11.538;2022-10-13T07:36:36;29.98;;;16.88;;
47519;SDS011;33252;48.122;11.538;2022-10-13T07:39:05;26.02;;;17.15;;
47519;SDS011;33252;48.122;11.538;2022-10-13T07:41:34;24.02;;;16.00;;
47519;SDS011;33252;48.122;11.538;2022-10-13T07:44:00;30.33;;;16.95;;
47519;SDS011;33252;48.122;11.538;2022-10-13T07:46:26;26.63;;;15.52;;
47519;SDS011;33252;48.122;11.538;2022-10-13T07:48:52;27.38;;;15.77;;
47519;SDS011;33252;48.122;11.538;2022-10-13T07:51:18;24.80;;;16.05;;
47519;SDS011;33252;48.122;11.538;2022-10-13T07:53:45;25.55;;;16.48;;
47519;SDS011;33252;48.122;11.538;2022-10-13T07:56:11;25.15;;;14.73;;
47519;SDS011;33252;48.122;11.538;2022-10-13T07:58:40;26.45;;;15.70;;
47519;SDS011;33252;48.122;11.538;2022-10-13T08:01:08;25.45;;;14.70;;
47519;SDS011;33252;48.122;11.538;2022-10-13T08:03:34;22.92;;;14.63;;
47519;SDS011;33252;48.122;11.538;2022-10-13T08:06:00;29.35;;;15.70;;
47519;SDS011;33252;48.122;11.538;2022-10-13T08:08:28;24.48;;;14.52;;
47519;SDS011;33252;48.122;11.538;2022-10-13T08:10:55;23.20;;;15.63;;
47519;SDS011;33252;48.122;11.538;2022-10-13T08:13:26;21.35;;;13.70;;
47519;SDS011;33252;48.122;11.538;2022-10-13T08:15:51;23.70;;;15.90;;
47519;SDS011;33252;48.122;11.538;2022-10-13T08:18:17;20.92;;;13.43;;
47519;SDS011;33252;48.122;11.538;2022-10-13T08:20:43;21.73;;;13.02;;
47519;SDS011;33252;48.122;11.538;2022-10-13T08:23:10;22.80;;;14.20;;
47519;SDS011;33252;48.122;11.538;2022-10-13T08:25:37;23.77;;;14.10;;
47519;SDS011;33252;48.122;11.538;2022-10-13T08:28:04;23.38;;;12.88;;
47519;SDS011;33252;48.122;11.538;2022-10-13T08:30:31;24.80;;;13.65;;
47519;SDS011;33252;48.122;11.538;2022-10-13T08:32:57;25.40;;;13.93;;
47519;SDS011;33252;48.122;11.538;2022-10-13T08:35:22;21.70;;;13.48;;
47519;SDS011;33252;48.122;11.538;2022-10-13T08:37:48;20.00;;;14.02;;
47519;SDS011;33252;48.122;11.538;2022-10-13T08:40:15;22.73;;;13.27;;
47519;SDS011;33252;48.122;11.538;2022-10-13T08:42:44;26.63;;;15.13;;
47519;SDS011;33252;48.122;11.538;2022-10-13T08:45:14;25.15;;;13.90;;
47519;SDS011;33252;48.122;11.538;2022-10-13T08:47:46;19.92;;;12.75;;
47519;SDS011;33252;48.122;11.538;2022-10-13T08:50:20;21.80;;;13.18;;
47519;SDS011;33252;48.122;11.538;2022-10-13T08:52:59;24.20;;;13.90;;
47519;SDS011;33252;48.122;11.538;2022-10-13T08:55:30;25.27;;;13.00;;
47519;SDS011;33252;48.122;11.538;2022-10-13T08:57:57;24.73;;;13.60;;
47519;SDS011;33252;48.122;11.538;2022-10-13T09:00:24;23.15;;;14.18;;
47519;SDS011;33252;48.122;11.538;2022-10-13T09:02:50;22.17;;;12.55;;
47519;SDS011;33252;48.122;11.538;2022-10-13T09:05:18;26.30;;;13.05;;
47519;SDS011;33252;48.122;11.538;2022-10-13T09:07:51;21.88;;;13.00;;
47519;SDS011;33252;48.122;11.538;2022-10-13T09:10:18;19.52;;;12.88;;
47519;SDS011;33252;48.122;11.538;2022-10-13T09:12:44;22.90;;;12.57;;
47519;SDS011;33252;48.122;11.538;2022-10-13T09:15:10;20.25;;;12.13;;
47519;SDS011;33252;48.122;11.538;2022-10-13T09:17:37;18.33;;;10.45;;
47519;SDS011;33252;48.122;11.538;2022-10-13T09:20:06;21.60;;;12.50;;
47519;SDS011;33252;48.122;11.538;2022-10-13T09:22:42;19.13;;;12.38;;
47519;SDS011;33252;48.122;11.538;2022-10-13T09:25:31;22.33;;;12.10;;
47519;SDS011;33252;48.122;11.538;2022-10-13T09:28:08;17.17;;;11.65;;
47519;SDS011;33252;48.122;11.538;2022-10-13T09:30:39;20.92;;;11.35;;
47519;SDS011;33252;48.122;11.538;2022-10-13T09:36:04;18.10;;;11.85;;
47519;SDS011;33252;48.122;11.538;2022-10-13T09:38:26;22.70;;;12.03;;
47519;SDS011;33252;48.122;11.538;2022-10-13T09:43:40;19.85;;;11.02;;
47519;SDS011;33252;48.122;11.538;2022-10-13T09:46:16;20.40;;;10.68;;
47519;SDS011;33252;48.122;11.538;2022-10-13T09:48:44;17.13;;;10.45;;
47519;SDS011;33252;48.122;11.538;2022-10-13T09:54:03;15.55;;;11.50;;
47519;SDS011;33252;48.122;11.538;2022-10-13T09:56:34;18.08;;;10.82;;
47519;SDS011;33252;48.122;11.538;2022-10-13T10:01:51;16.17;;;9.70;;
47519;SDS011;33252;48.122;11.538;2022-10-13T10:04:19;16.90;;;9.68;;
47519;SDS011;33252;48.122;11.538;2022-10-13T10:06:48;14.40;;;9.25;;
47519;SDS011;33252;48.122;11.538;2022-10-13T10:09:29;16.80;;;9.48;;
47519;SDS011;33252;48.122;11.538;2022-10-13T10:12:03;12.95;;;7.90;;
47519;SDS011;33252;48.122;11.538;2022-10-13T10:14:34;16.08;;;9.13;;
47519;SDS011;33252;48.122;11.538;2022-10-13T10:19:45;12.57;;;8.55;;
47519;SDS011;33252;48.122;11.538;2022-10-13T10:30:44;17.70;;;8.63;;
47519;SDS011;33252;48.122;11.538;2022-10-13T10:33:24;16.65;;;9.55;;
47519;SDS011;33252;48.122;11.538;2022-10-13T10:36:12;19.30;;;9.45;;
47519;SDS011;33252;48.122;11.538;2022-10-13T10:39:02;16.73;;;9.48;;
47519;SDS011;33252;48.122;11.538;2022-10-13T10:41:44;21.90;;;9.82;;
47519;SDS011;33252;48.122;11.538;2022-10-13T10:44:31;15.20;;;8.90;;
47519;SDS011;33252;48.122;11.538;2022-10-13T10:47:00;16.70;;;8.53;;
47519;SDS011;33252;48.122;11.538;2022-10-13T10:49:33;11.52;;;8.32;;
47519;SDS011;33252;48.122;11.538;2022-10-13T10:52:02;17.55;;;9.88;;
47519;SDS011;33252;48.122;11.538;2022-10-13T10:54:52;22.15;;;11.55;;
47519;SDS011;33252;48.122;11.538;2022-10-13T11:00:08;16.27;;;9.85;;
47519;SDS011;33252;48.122;11.538;2022-10-13T11:05:14;13.15;;;7.82;;
47519;SDS011;33252;48.122;11.538;2022-10-13T11:15:12;16.58;;;10.38;;
47519;SDS011;33252;48.122;11.538;2022-10-13T11:17:52;19.63;;;10.60;;
47519;SDS011;33252;48.122;11.538;2022-10-13T11:30:47;14.18;;;8.98;;
47519;SDS011;33252;48.122;11.538;2022-10-13T11:38:56;15.07;;;8.43;;
47519;SDS011;33252;48.122;11.538;2022-10-13T11:41:39;16.02;;;9.27;;
47519;SDS011;33252;48.122;11.538;2022-10-13T11:44:15;15.98;;;8.73;;
47519;SDS011;33252;48.122;11.538;2022-10-13T11:50:06;13.10;;;8.13;;
47519;SDS011;33252;48.122;11.538;2022-10-13T12:00:52;14.25;;;8.35;;
47519;SDS011;33252;48.122;11.538;2022-10-13T12:03:37;15.38;;;10.00;;
47519;SDS011;33252;48.122;11.538;2022-10-13T12:08:50;13.98;;;9.40;;
47519;SDS011;33252;48.122;11.538;2022-10-13T12:11:24;14.80;;;8.82;;
47519;SDS011;33252;48.122;11.538;2022-10-13T12:13:52;16.42;;;9.00;;
47519;SDS011;33252;48.122;11.538;2022-10-13T12:16:18;14.85;;;8.15;;
47519;SDS011;33252;48.122;11.538;2022-10-13T12:18:45;12.30;;;8.75;;
47519;SDS011;33252;48.122;11.538;2022-10-13T12:21:12;12.55;;;7.65;;
47519;SDS011;33252;48.122;11.538;2022-10-13T12:23:41;15.93;;;8.35;;
47519;SDS011;33252;48.122;11.538;2022-10-13T12:26:12;15.70;;;8.85;;
47519;SDS011;33252;48.122;11.538;2022-10-13T12:28:56;15.85;;;8.18;;
47519;SDS011;33252;48.122;11.538;2022-10-13T12:31:27;14.30;;;8.43;;
47519;SDS011;33252;48.122;11.538;2022-10-13T12:34:12;14.85;;;7.80;;
47519;SDS011;33252;48.122;11.538;2022-10-13T12:37:20;12.68;;;7.65;;
47519;SDS011;33252;48.122;11.538;2022-10-13T12:39:51;19.25;;;7.88;;
47519;SDS011;33252;48.122;11.538;2022-10-13T12:42:19;10.85;;;7.10;;
47519;SDS011;33252;48.122;11.538;2022-10-13T12:44:59;9.70;;;7.05;;
47519;SDS011;33252;48.122;11.538;2022-10-13T12:52:54;13.80;;;7.53;;
47519;SDS011;33252;48.122;11.538;2022-10-13T12:55:45;15.77;;;7.50;;
47519;SDS011;33252;48.122;11.538;2022-10-13T13:03:39;11.13;;;6.72;;
47519;SDS011;33252;48.122;11.538;2022-10-13T13:08:32;11.40;;;6.82;;
47519;SDS011;33252;48.122;11.538;2022-10-13T13:10:58;9.07;;;6.40;;
47519;SDS011;33252;48.122;11.538;2022-10-13T13:13:26;9.02;;;6.28;;
47519;SDS011;33252;48.122;11.538;2022-10-13T13:15:52;9.35;;;5.70;;
47519;SDS011;33252;48.122;11.538;2022-10-13T13:20:55;13.90;;;6.50;;
47519;SDS011;33252;48.122;11.538;2022-10-13T13:23:21;13.20;;;6.68;;
47519;SDS011;33252;48.122;11.538;2022-10-13T13:28:47;11.25;;;7.05;;
47519;SDS011;33252;48.122;11.538;2022-10-13T13:31:15;10.50;;;6.72;;
47519;SDS011;33252;48.122;11.538;2022-10-13T13:33:42;12.52;;;6.75;;
47519;SDS011;33252;48.122;11.538;2022-10-13T13:36:18;12.88;;;6.05;;
47519;SDS011;33252;48.122;11.538;2022-10-13T13:38:44;10.77;;;6.40;;
47519;SDS011;33252;48.122;11.538;2022-10-13T13:41:09;11.02;;;5.72;;
47519;SDS011;33252;48.122;11.538;2022-10-13T13:43:36;8.90;;;5.82;;
47519;SDS011;33252;48.122;11.538;2022-10-13T13:46:03;9.27;;;6.43;;
47519;SDS011;33252;48.122;11.538;2022-10-13T13:48:30;11.65;;;5.65;;
47519;SDS011;33252;48.122;11.538;2022-10-13T13:50:56;9.13;;;5.60;;
47519;SDS011;33252;48.122;11.538;2022-10-13T13:53:22;10.48;;;5.88;;
47519;SDS011;33252;48.122;11.538;2022-10-13T13:55:47;9.40;;;6.13;;
47519;SDS011;33252;48.122;11.538;2022-10-13T13:58:13;17.38;;;6.93;;
47519;SDS011;33252;48.122;11.538;2022-10-13T14:00:39;10.65;;;6.25;;
47519;SDS011;33252;48.122;11.538;2022-10-13T14:03:04;14.10;;;6.45;;
47519;SDS011;33252;48.122;11.538;2022-10-13T14:05:30;10.70;;;6.63;;
47519;SDS011;33252;48.122;11.538;2022-10-13T14:07:56;12.18;;;6.40;;
47519;SDS011;33252;48.122;11.538;2022-10-13T14:10:23;9.88;;;5.95;;
47519;SDS011;33252;48.122;11.538;2022-10-13T14:12:50;9.98;;;6.75;;
47519;SDS011;33252;48.122;11.538;2022-10-13T14:15:16;10.50;;;6.18;;
47519;SDS011;33252;48.122;11.538;2022-10-13T14:17:42;11.73;;;6.13;;
47519;SDS011;33252;48.122;11.538;2022-10-13T14:20:08;7.65;;;5.60;;
47519;SDS011;33252;48.122;11.538;2022-10-13T14:22:37;11.10;;;6.63;;
47519;SDS011;33252;48.122;11.538;2022-10-13T14:25:04;7.07;;;6.20;;
47519;SDS011;33252;48.122;11.538;2022-10-13T14:27:32;11.63;;;6.00;;
47519;SDS011;33252;48.122;11.538;2022-10-13T14:29:58;11.32;;;6.35;;
47519;SDS011;33252;48.122;11.538;2022-10-13T14:32:25;9.52;;;6.47;;
47519;SDS011;33252;48.122;11.538;2022-10-13T14:34:51;15.02;;;7.03;;
47519;SDS011;33252;48.122;11.538;2022-10-13T14:37:16;16.90;;;6.60;;
47519;SDS011;33252;48.122;11.538;2022-10-13T14:39:42;10.50;;;6.28;;
47519;SDS011;33252;48.122;11.538;2022-10-13T14:42:08;12.55;;;7.13;;
47519;SDS011;33252;48.122;11.538;2022-10-13T14:44:34;9.57;;;6.50;;
47519;SDS011;33252;48.122;11.538;2022-10-13T14:46:59;10.43;;;6.43;;
47519;SDS011;33252;48.122;11.538;2022-10-13T14:49:25;11.63;;;6.60;;
47519;SDS011;33252;48.122;11.538;2022-10-13T14:51:51;12.45;;;6.50;;
47519;SDS011;33252;48.122;11.538;2022-10-13T14:54:16;12.13;;;6.65;;
47519;SDS011;33252;48.122;11.538;2022-10-13T14:56:42;6.82;;;4.78;;
47519;SDS011;33252;48.122;11.538;2022-10-13T14:59:08;12.52;;;6.25;;
47519;SDS011;33252;48.122;11.538;2022-10-13T15:01:36;9.00;;;6.07;;
47519;SDS011;33252;48.122;11.538;2022-10-13T15:04:02;8.95;;;5.25;;
47519;SDS011;33252;48.122;11.538;2022-10-13T15:06:28;9.55;;;6.05;;
47519;SDS011;33252;48.122;11.538;2022-10-13T15:08:54;9.90;;;5.10;;
47519;SDS011;33252;48.122;11.538;2022-10-13T15:11:20;11.60;;;6.82;;
47519;SDS011;33252;48.122;11.538;2022-10-13T15:13:46;10.77;;;6.63;;
47519;SDS011;33252;48.122;11.538;2022-10-13T15:16:16;8.27;;;6.07;;
47519;SDS011;33252;48.122;11.538;2022-10-13T15:18:43;16.58;;;7.13;;
47519;SDS011;33252;48.122;11.538;2022-10-13T15:21:10;8.30;;;6.40;;
47519;SDS011;33252;48.122;11.538;2022-10-13T15:23:36;8.77;;;5.90;;
47519;SDS011;33252;48.122;11.538;2022-10-13T15:26:02;9.90;;;6.07;;
47519;SDS011;33252;48.122;11.538;2022-10-13T15:28:29;7.78;;;6.50;;
47519;SDS011;33252;48.122;11.538;2022-10-13T15:31:06;17.80;;;6.57;;
47519;SDS011;33252;48.122;11.538;2022-10-13T15:33:32;10.55;;;6.28;;
47519;SDS011;33252;48.122;11.538;2022-10-13T15:35:58;9.10;;;6.30;;
47519;SDS011;33252;48.122;11.538;2022-10-13T15:38:24;11.15;;;6.00;;
47519;SDS011;33252;48.122;11.538;2022-10-13T15:40:50;13.20;;;6.50;;
47519;SDS011;33252;48.122;11.538;2022-10-13T15:43:16;10.57;;;6.40;;
47519;SDS011;33252;48.122;11.538;2022-10-13T15:45:42;13.52;;;6.72;;
47519;SDS011;33252;48.122;11.538;2022-10-13T15:48:18;10.20;;;7.22;;
47519;SDS011;33252;48.122;11.538;2022-10-13T15:50:44;8.25;;;5.90;;
47519;SDS011;33252;48.122;11.538;2022-10-13T15:53:10;12.73;;;7.75;;
47519;SDS011;33252;48.122;11.538;2022-10-13T15:55:36;12.45;;;7.35;;
47519;SDS011;33252;48.122;11.538;2022-10-13T15:58:03;14.15;;;8.75;;
47519;SDS011;33252;48.122;11.538;2022-10-13T16:00:28;9.48;;;7.03;;
47519;SDS011;33252;48.122;11.538;2022-10-13T16:02:54;9.60;;;6.47;;
47519;SDS011;33252;48.122;11.538;2022-10-13T16:05:19;10.75;;;7.05;;
47519;SDS011;33252;48.122;11.538;2022-10-13T16:07:45;10.40;;;7.25;;
47519;SDS011;33252;48.122;11.538;2022-10-13T16:10:12;12.07;;;6.80;;
47519;SDS011;33252;48.122;11.538;2022-10-13T16:12:38;11.23;;;7.28;;
47519;SDS011;33252;48.122;11.538;2022-10-13T16:15:05;12.45;;;6.70;;
47519;SDS011;33252;48.122;11.538;2022-10-13T16:17:32;13.10;;;8.30;;
47519;SDS011;33252;48.122;11.538;2022-10-13T16:19:57;10.00;;;6.25;;